Time;durP1;ratioP1;P1;durP2;ratioP2;P2;SDS_P1;SDS_P2;PMS_P1;PMS_P2;Temp;Humidity;BMP_temperature;BMP_pressure;BME280_temperature;BME280_humidity;BME280_pressure;Samples;Min_cycle;Max_cycle;Signal;HPM_P1;HPM_P2
2023/10/19 00:01:59;;;;;;;2.25;1.95;;;;;;;13.17;100.00;96766.22;4106582;28;20253;-48
2023/10/19 00:04:01;;;;;;;1.67;1.58;;;;;;;13.14;100.00;96764.13;4124417;28;20252;-46
2023/10/19 00:06:05;;;;;;;1.58;1.48;;;;;;;13.24;100.00;96768.56;4121454;28;20218;-48
2023/10/19 00:08:19;;;;;;;1.00;1.00;;;;;;;13.20;100.00;96773.88;4120270;28;20642;-48
2023/10/19 00:10:21;;;;;;;1.30;1.20;;;;;;;13.28;100.00;96764.88;4118610;28;20256;-46
2023/10/19 00:12:23;;;;;;;2.38;1.98;;;;;;;13.32;100.00;96776.06;4119396;28;20257;-46
2023/10/19 00:14:25;;;;;;;2.22;2.03;;;;;;;13.30;100.00;96779.13;4122177;28;20486;-46
2023/10/19 00:16:30;;;;;;;2.45;2.25;;;;;;;13.37;100.00;96771.25;4104893;28;20239;-48
2023/10/19 00:18:34;;;;;;;2.03;1.83;;;;;;;13.38;100.00;96774.84;4123332;28;20574;-47
2023/10/19 00:22:47;;;;;;;1.90;1.77;;;;;;;13.39;100.00;96758.03;4106113;28;20226;-46
2023/10/19 00:24:50;;;;;;;1.90;1.70;;;;;;;13.38;100.00;96761.88;4105390;28;20211;-48
2023/10/19 00:26:54;;;;;;;2.53;2.33;;;;;;;13.44;100.00;96757.91;4105303;28;20258;-47
2023/10/19 00:28:57;;;;;;;2.38;2.28;;;;;;;13.48;100.00;96747.94;4107324;28;20460;-46
2023/10/19 00:31:07;;;;;;;1.27;1.27;;;;;;;13.43;100.00;96753.53;4121166;28;20223;-46
2023/10/19 00:33:16;;;;;;;3.13;2.72;;;;;;;13.52;100.00;96759.94;4120430;28;20237;-46
2023/10/19 00:35:27;;;;;;;2.25;2.05;;;;;;;13.48;100.00;96763.59;4119659;28;20206;-48
2023/10/19 00:37:32;;;;;;;2.38;2.03;;;;;;;13.54;100.00;96760.41;4107281;28;20804;-46
2023/10/19 00:39:43;;;;;;;2.45;2.25;;;;;;;13.49;100.00;96749.53;4123290;28;20220;-46
2023/10/19 00:41:45;;;;;;;1.98;1.33;;;;;;;13.53;100.00;96753.31;4118613;28;20269;-47
2023/10/19 00:43:49;;;;;;;1.90;1.60;;;;;;;13.61;100.00;96758.03;4116587;28;20764;-49
2023/10/19 00:45:52;;;;;;;4.55;1.65;;;;;;;13.65;100.00;96748.06;4121033;28;20632;-47
2023/10/19 00:47:54;;;;;;;2.50;1.75;;;;;;;13.68;100.00;96752.94;4118117;28;20206;-46
2023/10/19 00:49:59;;;;;;;2.35;2.15;;;;;;;13.69;100.00;96749.03;4103536;28;20325;-48
2023/10/19 00:52:11;;;;;;;2.28;1.80;;;;;;;13.65;100.00;96748.06;4138220;28;20221;-47
2023/10/19 00:54:26;;;;;;;1.88;1.60;;;;;;;13.68;100.00;96752.94;4121116;28;20230;-46
2023/10/19 00:56:32;;;;;;;1.98;1.88;;;;;;;13.68;100.00;96750.19;4136605;28;20255;-46
2023/10/19 00:58:36;;;;;;;1.33;1.20;;;;;;;13.67;100.00;96745.81;4114465;28;20282;-47
2023/10/19 01:00:43;;;;;;;2.10;2.00;;;;;;;13.66;100.00;96746.94;4134888;28;20278;-47
2023/10/19 01:02:45;;;;;;;3.15;1.50;;;;;;;13.62;100.00;96743.19;4097785;28;20774;-47
2023/10/19 01:05:05;;;;;;;2.55;2.35;;;;;;;13.64;100.00;96746.41;4105181;28;20267;-49
2023/10/19 01:07:12;;;;;;;2.03;1.85;;;;;;;13.61;100.00;96741.56;4124123;28;20202;-48
2023/10/19 01:09:14;;;;;;;2.47;1.65;;;;;;;13.53;100.00;96736.81;4124843;28;20585;-47
2023/10/19 01:11:21;;;;;;;2.60;1.67;;;;;;;13.52;100.00;96737.94;4137559;28;20205;-47
2023/10/19 01:13:34;;;;;;;1.25;1.23;;;;;;;13.51;100.00;96730.81;4108354;28;20231;-47
2023/10/19 01:15:36;;;;;;;2.05;1.85;;;;;;;13.49;100.00;96738.56;4106840;28;20211;-46
2023/10/19 01:17:40;;;;;;;1.90;1.70;;;;;;;13.45;100.00;96731.25;4104949;28;20250;-47
2023/10/19 01:19:42;;;;;;;2.60;2.13;;;;;;;13.42;100.00;96743.66;4121781;28;21399;-46
2023/10/19 01:21:51;;;;;;;3.55;1.63;;;;;;;13.40;100.00;96743.19;4141290;28;20300;-49
2023/10/19 01:23:53;;;;;;;1.92;1.25;;;;;;;13.37;100.00;96740.25;4123292;28;20292;-47
2023/10/19 01:27:58;;;;;;;2.30;2.05;;;;;;;13.38;100.00;96736.38;4103979;28;20230;-47
2023/10/19 01:30:02;;;;;;;1.65;1.52;;;;;;;13.39;100.00;96738.00;4108188;28;20203;-47
2023/10/19 01:32:15;;;;;;;2.78;2.03;;;;;;;13.35;100.00;96743.28;4119980;28;20711;-47
2023/10/19 01:34:20;;;;;;;2.50;2.17;;;;;;;13.43;100.00;96739.78;4105250;28;20234;-47
2023/10/19 01:38:25;;;;;;;2.15;1.95;;;;;;;13.40;100.00;96740.44;4105882;28;20266;-49
2023/10/19 01:40:30;;;;;;;1.88;1.77;;;;;;;13.54;100.00;96732.94;4115668;28;20221;-46
2023/10/19 01:42:35;;;;;;;2.17;1.75;;;;;;;13.52;100.00;96742.63;4106242;28;20688;-46
2023/10/19 01:44:37;;;;;;;2.53;1.95;;;;;;;13.55;100.00;96737.31;4117160;28;20203;-47
2023/10/19 01:46:39;;;;;;;1.85;1.75;;;;;;;13.50;100.00;96731.94;4104431;28;20211;-48
2023/10/19 01:48:43;;;;;;;2.03;1.83;;;;;;;13.80;100.00;96739.44;4134363;28;20210;-47
2023/10/19 01:50:44;;;;;;;4.05;1.70;;;;;;;13.94;100.00;96740.16;4103478;28;20218;-47
2023/10/19 01:52:46;;;;;;;1.38;1.23;;;;;;;14.07;100.00;96739.25;4136353;28;20208;-46
2023/10/19 01:54:48;;;;;;;2.03;1.70;;;;;;;14.04;100.00;96739.88;4121107;28;20998;-47
2023/10/19 01:56:56;;;;;;;6.13;1.90;;;;;;;14.09;100.00;96727.97;4101236;28;20215;-47
2023/10/19 01:58:59;;;;;;;2.33;1.90;;;;;;;14.13;100.00;96728.94;4135731;28;20209;-46
2023/10/19 02:01:02;;;;;;;1.80;1.60;;;;;;;14.18;100.00;96726.88;4124137;28;20206;-48
2023/10/19 02:03:07;;;;;;;2.10;1.63;;;;;;;14.11;100.00;96723.72;4120869;28;20236;-46
2023/10/19 02:05:15;;;;;;;2.22;2.13;;;;;;;14.11;100.00;96723.72;4114856;28;20209;-48
2023/10/19 02:07:17;;;;;;;3.33;2.17;;;;;;;14.11;100.00;96720.19;4119932;28;20499;-47
2023/10/19 02:09:25;;;;;;;1.73;1.63;;;;;;;14.16;100.00;96717.31;4105870;28;20207;-50
2023/10/19 02:11:28;;;;;;;1.25;1.15;;;;;;;14.13;100.00;96716.00;4111261;28;20301;-48
2023/10/19 02:13:30;;;;;;;2.35;2.15;;;;;;;14.14;100.00;96706.63;4120649;28;20239;-47
2023/10/19 02:15:34;;;;;;;2.35;1.55;;;;;;;14.19;100.00;96703.78;4103753;28;20620;-46
2023/10/19 02:17:37;;;;;;;1.70;1.58;;;;;;;14.12;100.00;96703.38;4117709;28;20289;-47
2023/10/19 02:19:38;;;;;;;2.00;1.88;;;;;;;14.20;100.00;96693.56;4101319;28;20219;-47
2023/10/19 02:21:40;;;;;;;1.95;1.85;;;;;;;14.13;100.00;96693.16;4121886;28;20209;-47
2023/10/19 02:23:42;;;;;;;1.77;1.67;;;;;;;14.13;100.00;96694.00;4120476;28;20234;-47
2023/10/19 02:25:44;;;;;;;2.38;2.17;;;;;;;14.09;100.00;96704.00;4121834;28;20289;-46
2023/10/19 02:27:46;;;;;;;2.88;2.65;;;;;;;14.11;100.00;96700.94;4103558;28;20621;-48
2023/10/19 02:29:51;;;;;;;1.73;1.60;;;;;;;14.16;100.00;96695.31;4102170;28;20263;-48
2023/10/19 02:31:54;;;;;;;1.88;1.33;;;;;;;14.11;100.00;96695.44;4119297;28;20210;-46
2023/10/19 02:33:59;;;;;;;1.88;1.60;;;;;;;14.14;100.00;96684.59;4101704;28;20230;-47
2023/10/19 02:36:01;;;;;;;10.73;1.88;;;;;;;14.23;100.00;96688.22;4104251;28;20301;-47
2023/10/19 02:38:05;;;;;;;2.15;1.27;;;;;;;14.07;100.00;96684.25;4103874;28;20219;-46
2023/10/19 02:40:19;;;;;;;6.47;1.75;;;;;;;14.12;100.00;96681.38;4117866;28;20206;-47
2023/10/19 02:42:22;;;;;;;1.85;1.52;;;;;;;14.13;100.00;96691.25;4134061;28;20542;-46
2023/10/19 02:44:25;;;;;;;1.88;1.73;;;;;;;14.17;100.00;96689.47;4119307;28;20229;-48
2023/10/19 02:46:32;;;;;;;11.07;1.77;;;;;;;14.20;100.00;96688.06;4135609;28;20202;-47
2023/10/19 02:48:35;;;;;;;2.00;1.88;;;;;;;14.14;100.00;96695.63;4101778;28;20191;-47
2023/10/19 02:50:36;;;;;;;1.60;1.50;;;;;;;14.12;100.00;96692.38;4118131;28;20664;-47
2023/10/19 02:52:38;;;;;;;3.88;1.52;;;;;;;14.13;100.00;96688.50;4118110;28;20210;-47
2023/10/19 02:54:40;;;;;;;1.80;1.70;;;;;;;14.13;100.00;96690.41;4103957;28;20632;-46
2023/10/19 02:56:42;;;;;;;1.65;1.52;;;;;;;14.17;100.00;96683.97;4115683;28;20206;-46
2023/10/19 02:58:48;;;;;;;1.77;1.67;;;;;;;14.21;100.00;96685.00;4132157;28;20225;-48
2023/10/19 03:00:51;;;;;;;1.63;1.10;;;;;;;14.10;100.00;96688.31;4117255;28;20268;-46
2023/10/19 03:02:54;;;;;;;1.92;1.80;;;;;;;14.18;100.00;96685.63;4117539;28;20261;-47
2023/10/19 03:04:56;;;;;;;1.88;1.45;;;;;;;14.20;100.00;96683.38;4101561;28;20221;-47
2023/10/19 03:06:58;;;;;;;2.70;1.83;;;;;;;14.21;100.00;96682.25;4104143;28;20220;-47
2023/10/19 03:09:13;;;;;;;2.05;1.30;;;;;;;14.22;100.00;96664.59;4116561;28;20209;-46
2023/10/19 03:11:16;;;;;;;1.90;1.80;;;;;;;14.12;100.00;96659.38;4119341;28;20206;-47
2023/10/19 03:13:17;;;;;;;2.00;1.73;;;;;;;14.16;100.00;96659.53;4100918;28;20281;-47
2023/10/19 03:15:20;;;;;;;1.90;1.80;;;;;;;14.18;100.00;96658.09;4102278;28;20216;-48
2023/10/19 03:17:25;;;;;;;1.25;1.15;;;;;;;14.11;100.00;96660.47;4133231;28;20233;-48
2023/10/19 03:19:27;;;;;;;2.08;1.58;;;;;;;14.08;100.00;96658.38;4116135;28;20234;-46
2023/10/19 03:21:33;;;;;;;1.65;1.55;;;;;;;14.08;100.00;96654.78;4105014;28;20214;-46
2023/10/19 03:23:34;;;;;;;2.53;2.03;;;;;;;14.09;100.00;96659.19;4116331;28;20225;-46
2023/10/19 03:28:11;;;;;;;3.58;1.52;;;;;;;14.10;100.00;96656.09;4090642;28;20210;-46
2023/10/19 03:30:15;;;;;;;3.10;1.40;;;;;;;14.04;100.00;96657.38;4098767;28;20215;-46
2023/10/19 03:32:19;;;;;;;4.60;2.45;;;;;;;14.04;100.00;96649.13;4101528;28;20208;-47
2023/10/19 03:34:23;;;;;;;1.55;1.45;;;;;;;14.05;100.00;96653.53;4136135;28;20228;-46
2023/10/19 03:36:26;;;;;;;1.98;1.58;;;;;;;14.02;100.00;96650.56;4118459;28;20305;-46
2023/10/19 03:38:31;;;;;;;1.75;1.65;;;;;;;14.00;100.00;96650.91;4116939;28;20230;-47
2023/10/19 03:40:35;;;;;;;1.65;1.55;;;;;;;14.04;100.00;96649.13;4119018;28;20842;-47
2023/10/19 03:42:40;;;;;;;1.23;1.10;;;;;;;13.94;100.00;96643.09;4122086;28;20768;-47
2023/10/19 03:46:52;;;;;;;5.65;2.53;;;;;;;13.91;100.00;96636.28;4104102;28;20647;-46
2023/10/19 03:49:03;;;;;;;1.58;1.17;;;;;;;13.95;100.00;96637.28;4118359;28;20648;-46
2023/10/19 03:51:04;;;;;;;6.95;2.10;;;;;;;13.99;100.00;96634.72;4118564;28;20274;-47
2023/10/19 03:53:06;;;;;;;1.98;1.73;;;;;;;13.89;100.00;96635.81;4116277;28;20635;-46
2023/10/19 03:55:12;;;;;;;2.00;1.77;;;;;;;13.85;100.00;96625.75;4106854;28;20211;-47
2023/10/19 03:57:30;;;;;;;2.60;2.40;;;;;;;13.74;100.00;96625.22;4098650;28;20276;-48
2023/10/19 03:59:35;;;;;;;2.45;2.25;;;;;;;13.71;100.00;96614.84;4118997;28;20807;-49
2023/10/19 04:01:37;;;;;;;2.92;2.50;;;;;;;13.71;100.00;96620.34;4117761;28;20246;-46
2023/10/19 04:03:39;;;;;;;8.25;2.22;;;;;;;13.67;100.00;96619.38;4136542;28;20256;-47
2023/10/19 04:05:43;;;;;;;2.60;1.42;;;;;;;13.76;100.00;96622.16;4120843;28;20311;-47
2023/10/19 04:07:49;;;;;;;2.40;2.25;;;;;;;13.74;100.00;96624.41;4119192;28;20206;-46
2023/10/19 04:12:10;;;;;;;2.33;2.22;;;;;;;13.79;100.00;96616.03;4105039;28;20203;-46
2023/10/19 04:14:15;;;;;;;3.20;2.45;;;;;;;13.80;100.00;96623.97;4121697;28;20308;-46
2023/10/19 04:16:16;;;;;;;2.85;2.65;;;;;;;13.85;100.00;96618.34;4105633;28;20802;-46
2023/10/19 04:18:18;;;;;;;2.80;2.50;;;;;;;13.89;100.00;96611.06;4105485;28;21596;-47
2023/10/19 04:22:23;;;;;;;7.07;6.47;;;;;;;14.01;100.00;96613.19;4105721;28;20234;-47
2023/10/19 04:24:25;;;;;;;7.68;7.07;;;;;;;13.93;100.00;96605.72;4136927;28;20695;-47
2023/10/19 04:26:26;;;;;;;7.15;6.68;;;;;;;13.92;100.00;96609.63;4135113;28;20206;-46
2023/10/19 04:28:33;;;;;;;4.93;4.53;;;;;;;13.98;100.00;96611.09;4120734;28;20206;-48
2023/10/19 04:30:37;;;;;;;3.25;2.78;;;;;;;13.99;100.00;96610.78;4104533;28;20210;-47
2023/10/19 04:32:39;;;;;;;2.78;2.58;;;;;;;14.01;100.00;96608.53;4103276;28;20380;-47
2023/10/19 04:34:41;;;;;;;3.40;2.25;;;;;;;14.16;100.00;96610.03;4136892;28;20809;-46
2023/10/19 04:36:43;;;;;;;2.92;1.65;;;;;;;14.17;100.00;96606.16;4121679;28;20236;-50
2023/10/19 04:38:45;;;;;;;7.85;2.55;;;;;;;14.16;100.00;96608.06;4121043;28;20229;-46
2023/10/19 04:40:47;;;;;;;1.95;1.85;;;;;;;14.16;100.00;96610.81;4101354;28;20248;-47
2023/10/19 04:42:51;;;;;;;2.22;2.03;;;;;;;14.10;100.00;96612.09;4119573;28;20725;-48
2023/10/19 04:44:54;;;;;;;1.73;1.63;;;;;;;14.10;100.00;96612.09;4136542;28;20213;-48
2023/10/19 04:46:57;;;;;;;3.80;1.50;;;;;;;14.11;100.00;96610.16;4108604;28;20697;-47
2023/10/19 04:48:59;;;;;;;2.00;1.90;;;;;;;14.13;100.00;96611.47;4102365;28;20203;-47
2023/10/19 04:51:03;;;;;;;8.32;1.98;;;;;;;14.15;100.00;96609.22;4103537;28;20242;-46
2023/10/19 04:53:05;;;;;;;2.20;1.42;;;;;;;14.17;100.00;96598.69;4108149;28;20320;-46
2023/10/19 04:55:07;;;;;;;1.58;1.30;;;;;;;14.17;100.00;96601.44;4118553;28;20206;-48
2023/10/19 04:57:10;;;;;;;1.65;1.58;;;;;;;14.20;100.00;96605.53;4104286;28;20237;-47
2023/10/19 04:59:12;;;;;;;1.08;1.08;;;;;;;14.23;100.00;96605.69;4084685;28;20283;-46
2023/10/19 05:01:14;;;;;;;3.35;2.90;;;;;;;14.14;100.00;96596.59;4101336;28;20210;-45
2023/10/19 05:03:18;;;;;;;3.75;3.05;;;;;;;14.11;100.00;96591.72;4135645;28;20225;-46
2023/10/19 05:05:20;;;;;;;1.38;1.27;;;;;;;14.21;100.00;96596.13;4105444;28;20276;-47
2023/10/19 05:07:22;;;;;;;1.70;1.20;;;;;;;14.22;100.00;96601.31;4115750;28;20221;-47
2023/10/19 05:09:24;;;;;;;1.20;1.20;;;;;;;14.26;100.00;96598.75;4123106;28;20209;-47
2023/10/19 05:11:25;;;;;;;1.08;1.02;;;;;;;14.23;100.00;96605.69;4121958;28;20211;-47
2023/10/19 05:13:27;;;;;;;1.15;1.08;;;;;;;14.26;100.00;96596.00;4136443;28;20311;-47
2023/10/19 05:15:30;;;;;;;0.73;0.73;;;;;;;14.30;100.00;96585.97;4118397;28;20736;-47
2023/10/19 05:17:32;;;;;;;1.27;1.17;;;;;;;14.31;100.00;96588.41;4121684;28;20211;-48
2023/10/19 05:19:38;;;;;;;0.73;0.70;;;;;;;14.43;100.00;96590.53;4105282;28;20235;-46
2023/10/19 05:21:40;;;;;;;1.55;1.45;;;;;;;14.45;100.00;96586.34;4118722;28;20206;-47
2023/10/19 05:23:41;;;;;;;1.50;1.40;;;;;;;14.54;100.00;96589.91;4133379;28;20233;-47
2023/10/19 05:25:44;;;;;;;0.80;0.80;;;;;;;14.57;100.00;96583.75;4119293;28;20256;-47
2023/10/19 05:27:46;;;;;;;2.03;1.90;;;;;;;14.61;100.00;96590.22;4133665;28;20217;-47
2023/10/19 05:29:48;;;;;;;1.83;1.73;;;;;;;14.62;100.00;96591.06;4135708;28;21015;-47
2023/10/19 05:31:53;;;;;;;1.30;1.17;;;;;;;14.56;100.00;96593.13;4104951;28;20217;-49
2023/10/19 05:33:55;;;;;;;0.95;0.95;;;;;;;14.57;100.00;96583.75;4119762;28;20244;-47
2023/10/19 05:35:57;;;;;;;4.13;1.10;;;;;;;14.59;100.00;96584.25;4103684;28;20245;-47
2023/10/19 05:38:00;;;;;;;1.00;0.90;;;;;;;14.57;100.00;96581.00;4091298;28;20215;-48
2023/10/19 05:40:04;;;;;;;1.42;1.15;;;;;;;14.58;100.00;96585.34;4134108;28;20210;-47
2023/10/19 05:42:06;;;;;;;1.33;1.10;;;;;;;14.55;100.00;96588.75;4133707;28;20213;-48
2023/10/19 05:44:08;;;;;;;1.15;1.02;;;;;;;14.51;100.00;96590.53;4100526;28;20230;-48
2023/10/19 05:46:10;;;;;;;1.42;1.33;;;;;;;14.56;100.00;96593.13;4103731;28;20206;-47
2023/10/19 05:48:12;;;;;;;1.75;1.33;;;;;;;14.55;100.00;96586.00;4134910;28;20264;-46
2023/10/19 05:50:14;;;;;;;0.88;0.80;;;;;;;14.49;100.00;96586.50;4103088;28;20215;-46
2023/10/19 05:52:16;;;;;;;1.10;1.00;;;;;;;14.52;100.00;96592.19;4102097;28;20267;-46
2023/10/19 05:54:18;;;;;;;1.05;0.85;;;;;;;14.51;100.00;96593.28;4101839;28;20238;-48
2023/10/19 05:56:21;;;;;;;1.15;1.05;;;;;;;14.51;100.00;96593.28;4133647;28;20210;-47
2023/10/19 05:58:22;;;;;;;1.00;1.00;;;;;;;14.50;100.00;96588.91;4100678;28;20239;-46
2023/10/19 06:00:25;;;;;;;1.00;1.00;;;;;;;14.52;100.00;96591.34;4118596;28;20668;-47
2023/10/19 06:02:27;;;;;;;4.28;1.88;;;;;;;14.44;100.00;96595.72;4116717;28;20276;-48
2023/10/19 06:04:34;;;;;;;1.13;1.05;;;;;;;14.51;100.00;96590.53;4116476;28;20627;-48
2023/10/19 06:06:37;;;;;;;0.80;0.80;;;;;;;14.46;100.00;96587.97;4106104;28;20215;-47
2023/10/19 06:08:40;;;;;;;2.38;0.90;;;;;;;14.51;100.00;96582.28;4132331;28;20213;-47
2023/10/19 06:10:42;;;;;;;9.32;1.30;;;;;;;14.48;100.00;96585.69;4115464;28;20792;-46
2023/10/19 06:12:45;;;;;;;1.20;1.17;;;;;;;14.50;100.00;96585.38;4112270;28;20214;-49
2023/10/19 06:14:50;;;;;;;0.73;0.73;;;;;;;14.46;100.00;96595.38;4106932;28;22229;-47
2023/10/19 06:16:52;;;;;;;0.60;0.60;;;;;;;14.50;100.00;96591.66;4118176;28;20207;-49
2023/10/19 06:18:54;;;;;;;0.90;0.90;;;;;;;14.44;100.00;96595.72;4084427;28;20266;-48
2023/10/19 06:20:57;;;;;;;0.82;0.80;;;;;;;14.46;100.00;96598.16;4116258;28;20202;-46
2023/10/19 06:23:05;;;;;;;0.77;0.77;;;;;;;14.51;100.00;96607.03;4115289;28;20240;-48
2023/10/19 06:25:08;;;;;;;1.13;0.85;;;;;;;14.54;100.00;96600.91;4134500;28;20216;-48
2023/10/19 06:27:10;;;;;;;1.50;1.10;;;;;;;14.44;100.00;96606.72;4134631;28;20763;-47
2023/10/19 06:29:12;;;;;;;4.13;2.10;;;;;;;14.48;100.00;96596.69;4136922;28;20673;-47
2023/10/19 06:31:15;;;;;;;1.27;1.27;;;;;;;14.47;100.00;96586.81;4103989;28;20210;-48
2023/10/19 06:33:22;;;;;;;1.60;1.50;;;;;;;14.53;100.00;96598.47;4116567;28;20268;-47
2023/10/19 06:35:24;;;;;;;4.10;2.03;;;;;;;14.54;100.00;96595.41;4087414;28;20211;-46
2023/10/19 06:37:32;;;;;;;1.48;1.38;;;;;;;14.56;100.00;96590.38;4118548;28;20254;-46
2023/10/19 06:39:34;;;;;;;2.97;1.65;;;;;;;14.49;100.00;96601.06;4100911;28;20282;-46
2023/10/19 06:41:36;;;;;;;3.25;1.45;;;;;;;14.46;100.00;96604.47;4118300;28;20234;-46
2023/10/19 06:43:39;;;;;;;4.03;2.38;;;;;;;14.51;100.00;96604.28;4121108;28;20582;-46
2023/10/19 06:45:40;;;;;;;2.75;2.20;;;;;;;14.57;100.00;96599.47;4105565;28;20235;-46
2023/10/19 06:47:44;;;;;;;3.50;1.88;;;;;;;14.54;100.00;96600.91;4104551;28;20211;-46
2023/10/19 06:49:46;;;;;;;11.27;3.80;;;;;;;14.56;100.00;96603.34;4121834;28;20206;-46
2023/10/19 06:51:48;;;;;;;14.93;3.55;;;;;;;14.58;100.00;96590.88;4102410;28;20230;-46
2023/10/19 06:53:50;;;;;;;8.25;3.67;;;;;;;14.54;100.00;96600.91;4109322;28;20244;-46
2023/10/19 06:55:55;;;;;;;4.50;3.17;;;;;;;14.58;100.00;96606.59;4109791;28;20214;-47
2023/10/19 06:57:57;;;;;;;2.97;2.47;;;;;;;14.61;100.00;96609.50;4122955;28;20198;-46
2023/10/19 07:00:03;;;;;;;2.72;2.20;;;;;;;14.64;100.00;96600.59;4106274;28;20235;-46
2023/10/19 07:02:12;;;;;;;4.35;3.03;;;;;;;14.62;100.00;96602.84;4105402;28;20297;-45
2023/10/19 07:04:15;;;;;;;4.43;2.85;;;;;;;14.68;100.00;96607.09;4118378;28;20226;-46
2023/10/19 07:06:19;;;;;;;3.20;1.92;;;;;;;14.67;100.00;96599.97;4121181;28;20262;-45
2023/10/19 07:08:21;;;;;;;2.58;2.20;;;;;;;14.70;100.00;96599.28;4132549;28;20268;-45
2023/10/19 07:10:23;;;;;;;2.97;2.03;;;;;;;14.69;100.00;96592.19;4103083;28;20594;-45
2023/10/19 07:12:26;;;;;;;4.15;3.47;;;;;;;14.71;100.00;96592.66;4115809;28;20206;-45
2023/10/19 07:14:27;;;;;;;2.60;2.35;;;;;;;14.75;100.00;96579.06;4120893;28;20297;-45
2023/10/19 07:16:29;;;;;;;2.53;1.98;;;;;;;14.77;100.00;96577.59;4115504;28;20211;-45
2023/10/19 07:18:33;;;;;;;1.20;1.10;;;;;;;14.71;100.00;96578.88;4090898;28;20536;-45
2023/10/19 07:20:38;;;;;;;1.52;1.30;;;;;;;14.71;100.00;96584.41;4115504;28;20247;-45
2023/10/19 07:22:42;;;;;;;1.13;0.93;;;;;;;14.79;100.00;96588.28;4085217;28;20668;-45
2023/10/19 07:24:44;;;;;;;2.05;1.02;;;;;;;14.83;100.00;96601.09;4104175;28;20213;-45
2023/10/19 07:27:04;;;;;;;1.25;1.15;;;;;;;14.77;100.00;96602.38;4103498;28;20218;-45
2023/10/19 07:29:10;;;;;;;6.47;1.17;;;;;;;14.84;100.00;96605.47;4103310;28;20200;-45
2023/10/19 07:31:15;;;;;;;1.13;1.02;;;;;;;14.82;100.00;96613.25;4094004;28;20204;-45
2023/10/19 07:33:17;;;;;;;1.13;1.13;;;;;;;14.85;100.00;96607.09;4117526;28;20232;-45
2023/10/19 07:35:22;;;;;;;1.80;1.55;;;;;;;14.86;100.00;96605.16;4105882;28;20218;-44
2023/10/19 07:37:24;;;;;;;4.28;1.13;;;;;;;14.87;100.00;96604.00;4105734;28;20289;-45
2023/10/19 07:39:29;;;;;;;1.20;1.10;;;;;;;14.86;100.00;96594.94;4102856;28;20222;-45
2023/10/19 07:41:36;;;;;;;3.22;0.90;;;;;;;14.94;100.00;96602.41;4107910;28;20566;-45
2023/10/19 07:43:43;;;;;;;1.00;1.00;;;;;;;14.95;100.00;96601.25;4121206;28;20332;-44
2023/10/19 07:45:46;;;;;;;1.02;1.02;;;;;;;15.12;100.00;96606.78;4137838;28;20202;-45
2023/10/19 07:47:48;;;;;;;9.88;1.25;;;;;;;15.14;100.00;96598.97;4121833;28;20210;-45
2023/10/19 07:49:52;;;;;;;2.10;0.93;;;;;;;15.18;100.00;96602.72;4139287;28;20615;-45
2023/10/19 07:52:00;;;;;;;1.77;1.33;;;;;;;15.30;100.00;96591.81;4122656;28;20301;-46
2023/10/19 07:54:02;;;;;;;0.88;0.88;;;;;;;15.47;100.00;96597.34;4102728;28;20266;-45
2023/10/19 07:56:04;;;;;;;1.65;1.40;;;;;;;15.71;100.00;96589.31;4119370;28;20322;-45
2023/10/19 07:58:06;;;;;;;3.35;2.08;;;;;;;15.84;100.00;96593.78;4102911;28;20203;-45
2023/10/19 08:00:10;;;;;;;1.33;0.70;;;;;;;15.92;100.00;96595.75;4104850;28;20266;-45
2023/10/19 08:02:13;;;;;;;1.65;1.15;;;;;;;15.95;100.00;96597.03;4104768;28;20204;-45
2023/10/19 08:04:15;;;;;;;1.80;1.40;;;;;;;16.06;100.00;96596.31;4122121;28;20230;-45
2023/10/19 08:06:17;;;;;;;1.15;1.05;;;;;;;16.00;100.00;96589.38;4106284;28;20207;-45
2023/10/19 08:08:19;;;;;;;15.35;1.88;;;;;;;16.13;100.00;96585.56;4104991;28;20339;-45
2023/10/19 08:10:21;;;;;;;0.88;0.88;;;;;;;16.48;100.00;96570.44;4104064;28;20267;-45
2023/10/19 08:12:24;;;;;;;2.10;1.00;;;;;;;16.55;100.00;96576.25;4106790;28;20274;-46
2023/10/19 08:14:26;;;;;;;3.38;1.63;;;;;;;16.75;100.00;96578.22;4119519;28;20292;-45
2023/10/19 08:16:30;;;;;;;0.85;0.80;;;;;;;16.98;100.00;96572.00;4090275;28;20213;-46
2023/10/19 08:18:35;;;;;;;3.25;1.80;;;;;;;16.98;100.00;96571.22;4106837;28;20671;-46
2023/10/19 08:20:37;;;;;;;0.73;0.73;;;;;;;16.84;100.00;96590.00;4118797;28;20218;-45
2023/10/19 08:22:39;;;;;;;1.05;1.00;;;;;;;17.03;100.00;96579.28;4102402;28;20274;-46
2023/10/19 08:24:45;;;;;;;1.15;0.73;;;;;;;17.43;100.00;96580.41;4102915;28;20297;-45
2023/10/19 08:26:47;;;;;;;1.10;0.80;;;;;;;17.46;100.00;96571.44;4137904;28;20241;-45
2023/10/19 08:28:49;;;;;;;0.63;0.63;;;;;;;17.22;100.00;96574.06;4119819;28;20464;-46
2023/10/19 08:30:57;;;;;;;2.55;0.82;;;;;;;16.97;100.00;96569.56;4121402;28;20237;-46
2023/10/19 08:33:00;;;;;;;0.73;0.73;;;;;;;16.75;100.00;96578.22;4118022;28;20229;-45
2023/10/19 08:35:04;;;;;;;0.75;0.75;;;;;;;16.70;100.00;96581.16;4107776;28;20243;-45
2023/10/19 08:37:06;;;;;;;1.00;0.90;;;;;;;16.67;100.00;96581.84;4121461;28;20206;-46
2023/10/19 08:39:11;;;;;;;2.47;1.50;;;;;;;16.78;100.00;96577.56;4118537;28;20356;-46
2023/10/19 08:41:15;;;;;;;0.70;0.70;;;;;;;16.91;100.00;96573.72;4117299;28;20238;-45
2023/10/19 08:43:21;;;;;;;5.88;0.93;;;;;;;17.24;100.00;96585.59;4102871;28;20358;-46
2023/10/19 08:45:24;;;;;;;1.48;0.70;;;;;;;17.08;100.00;96579.06;4122100;28;20202;-45
2023/10/19 08:47:26;;;;;;;1.73;0.80;;;;;;;17.09;100.00;96575.16;4104137;28;20745;-45
2023/10/19 08:49:28;;;;;;;0.63;0.63;;;;;;;17.20;100.00;96573.59;4102445;28;20203;-45
2023/10/19 08:51:30;;;;;;;0.70;0.70;;;;;;;17.37;100.00;96568.75;4106570;28;20629;-47
2023/10/19 08:53:39;;;;;;;1.52;0.88;;;;;;;17.10;100.00;96562.97;4106376;28;20716;-46
2023/10/19 08:55:43;;;;;;;1.40;1.00;;;;;;;17.38;100.00;96553.78;4104456;28;20235;-46
2023/10/19 08:57:51;;;;;;;1.48;0.70;;;;;;;17.06;100.00;96557.31;4104911;28;20207;-45
2023/10/19 08:59:56;;;;;;;6.05;1.00;;;;;;;17.18;100.00;96548.28;4105702;28;20701;-47
2023/10/19 09:02:02;;;;;;;1.00;0.85;;;;;;;17.21;100.00;96542.06;4120498;28;20210;-46
2023/10/19 09:04:08;;;;;;;0.55;0.55;;;;;;;17.29;100.00;96554.97;4119579;28;20731;-44
2023/10/19 09:06:12;;;;;;;0.80;0.80;;;;;;;17.20;100.00;96557.81;4103265;28;20215;-45
2023/10/19 09:08:19;;;;;;;1.08;0.70;;;;;;;17.22;100.00;96543.66;4116118;28;20215;-45
2023/10/19 09:10:25;;;;;;;0.45;0.45;;;;;;;17.33;100.00;96550.38;4105814;28;20241;-45
2023/10/19 09:12:27;;;;;;;0.65;0.65;;;;;;;17.41;100.00;96536.50;4105855;28;20530;-45
2023/10/19 09:14:34;;;;;;;0.50;0.50;;;;;;;17.23;100.00;96534.22;4101903;28;20238;-45
2023/10/19 09:16:36;;;;;;;0.98;0.50;;;;;;;17.25;100.00;96543.00;4136919;28;20205;-45
2023/10/19 09:18:39;;;;;;;0.57;0.57;;;;;;;17.25;100.00;96531.94;4120446;28;20660;-45
2023/10/19 09:20:42;;;;;;;1.70;1.55;;;;;;;17.18;100.00;96534.44;4103542;28;20213;-45
2023/10/19 09:22:44;;;;;;;0.88;0.68;;;;;;;17.20;100.00;96523.84;4105420;28;20223;-45
2023/10/19 09:24:47;;;;;;;0.60;0.60;;;;;;;17.15;100.00;96532.34;4120269;28;20266;-45
2023/10/19 09:26:50;;;;;;;2.67;1.20;;;;;;;17.25;100.00;96529.97;4103113;28;20207;-45
2023/10/19 09:28:54;;;;;;;0.88;0.80;;;;;;;17.18;100.00;96531.69;4087353;28;20238;-45
2023/10/19 09:30:56;;;;;;;1.83;1.60;;;;;;;17.17;100.00;96530.03;4102352;28;20215;-45
2023/10/19 09:32:58;;;;;;;0.73;0.65;;;;;;;17.13;100.00;96534.66;4134863;28;20287;-46
2023/10/19 09:35:00;;;;;;;0.75;0.63;;;;;;;17.14;100.00;96525.22;4103377;28;20211;-46
2023/10/19 09:37:04;;;;;;;1.33;1.05;;;;;;;17.17;100.00;96530.88;4105921;28;20633;-46
2023/10/19 09:39:12;;;;;;;1.70;1.27;;;;;;;17.15;100.00;96527.66;4118185;28;20217;-45
2023/10/19 09:41:17;;;;;;;1.08;0.70;;;;;;;17.19;100.00;96533.31;4119740;28;20220;-46
2023/10/19 09:43:44;;;;;;;1.55;0.85;;;;;;;17.10;100.00;96529.78;4101026;28;20230;-45
2023/10/19 09:45:51;;;;;;;0.50;0.50;;;;;;;17.13;100.00;96529.13;4110482;28;20222;-45
2023/10/19 09:47:54;;;;;;;0.40;0.40;;;;;;;17.14;100.00;96525.22;4102493;28;21080;-45
2023/10/19 09:49:59;;;;;;;1.83;0.70;;;;;;;17.06;100.00;96528.88;4103574;28;20199;-46
2023/10/19 09:52:04;;;;;;;0.90;0.70;;;;;;;17.02;100.00;96522.41;4103130;28;20240;-45